KPIE/PIE METAR and TAF weather

Enter ICAO airport designator
Station Type Date Time Source
KPIE METAR 2021/05/14 02:53 UTC NOAA

KPIE 140253Z AUTO 04009KT 10SM BKN016 23/20 A3011 RMK AO2 SLP197 T02280200 51024


Station Type Date Time Source
KPIE Decoded METAR 2021/05/14 02:53 UTC NOAA

ST PETERSBURG/CLEARWATER, FL, United States (KPIE) 27-55N 82-41W 4M
May 13, 2021 - 10:53 PM EDT / 2021.05.14 0253 UTC
Wind: from the NE (040 degrees) at 10 MPH (9 KT):0
Visibility: 10 mile(s):0
Sky conditions: mostly cloudy
Temperature: 73.0 F (22.8 C)
Dew Point: 68.0 F (20.0 C)
Relative Humidity: 84%
Pressure (altimeter): 30.11 in. Hg (1019 hPa)
Pressure tendency: 0.07 inches (2.4 hPa) higher than three hours ago
ob: KPIE 140253Z AUTO 04009KT 10SM BKN016 23/20 A3011 RMK AO2 SLP197 T02280200 51024
cycle: 3

Station Type Date Time Source
KPIE TAF 2021/05/13 18:36 UTC NOAA

TAF KPIE 131735Z 1318/1418 05007KT P6SM VCSH SCT020 BKN100 OVC200
TEMPO 1318/1320 04008KT 6SM -RA BKN012 OVC100
FM132100 02010G15KT P6SM SCT020 OVC100
FM140600 05007KT P6SM SCT020 BKN040 OVC200
FM141600 03008KT P6SM BKN040

Example: see airport list